createdAt,value
2018-12-31T00:00:23.943Z,99.49
2018-12-31T00:01:58.421Z,99.32
2018-12-31T00:03:04.070Z,99.61
2018-12-31T00:04:09.962Z,100.00
2018-12-31T00:05:15.896Z,99.75
2018-12-31T00:06:21.793Z,99.90
2018-12-31T00:07:27.730Z,99.21
2018-12-31T00:08:33.643Z,98.48
2018-12-31T00:09:39.581Z,97.37
2018-12-31T00:10:45.690Z,96.55
2018-12-31T00:11:51.606Z,96.84
2018-12-31T00:12:57.508Z,97.27
2018-12-31T00:14:03.411Z,97.83
2018-12-31T00:15:09.296Z,98.31
2018-12-31T00:16:15.773Z,99.30
2018-12-31T00:17:21.710Z,99.70
2018-12-31T00:18:27.608Z,100.00
2018-12-31T00:19:33.488Z,99.37
2018-12-31T00:20:39.431Z,99.22
2018-12-31T00:21:45.325Z,99.11
2018-12-31T00:22:51.222Z,98.23
2018-12-31T00:23:57.118Z,98.39
2018-12-31T00:25:03.024Z,98.44
2018-12-31T00:26:08.896Z,99.77
2018-12-31T00:27:14.804Z,100.00
2018-12-31T00:28:20.694Z,100.00
2018-12-31T00:29:26.597Z,100.00
2018-12-31T00:30:32.157Z,100.00
2018-12-31T00:31:37.734Z,100.00
2018-12-31T00:32:43.661Z,100.00
2018-12-31T00:33:49.605Z,100.00
2018-12-31T00:34:55.587Z,100.00
2018-12-31T00:36:01.534Z,100.00
2018-12-31T00:37:07.473Z,100.00
2018-12-31T00:38:13.390Z,100.00
2018-12-31T00:39:19.283Z,100.00
2018-12-31T00:40:25.194Z,100.00
2018-12-31T00:41:31.137Z,99.74
2018-12-31T00:42:37.058Z,99.72
2018-12-31T00:43:42.973Z,98.75
2018-12-31T00:44:48.868Z,99.39
2018-12-31T00:45:54.785Z,99.46
2018-12-31T00:47:00.693Z,99.78
2018-12-31T00:48:06.597Z,100.00
2018-12-31T00:49:12.485Z,100.00
2018-12-31T00:50:19.091Z,99.90
2018-12-31T00:51:24.953Z,99.00
2018-12-31T00:52:30.876Z,98.27
2018-12-31T00:53:36.782Z,98.14
2018-12-31T00:54:42.673Z,98.95
2018-12-31T00:55:48.562Z,99.31
2018-12-31T00:56:54.466Z,99.74
2018-12-31T00:58:00.387Z,100.00
2018-12-31T00:59:06.290Z,99.99
2018-12-31T01:00:12.186Z,99.65
2018-12-31T01:01:18.067Z,99.56
2018-12-31T01:02:25.741Z,98.86
2018-12-31T01:03:29.989Z,98.77
2018-12-31T01:04:35.679Z,98.46
2018-12-31T01:05:41.194Z,98.71
2018-12-31T01:06:47.085Z,99.66
2018-12-31T01:07:52.779Z,99.83
2018-12-31T01:08:58.739Z,98.25
2018-12-31T01:10:03.977Z,98.16
2018-12-31T01:11:09.869Z,98.24
2018-12-31T01:12:15.781Z,98.85
2018-12-31T01:13:21.684Z,99.60
2018-12-31T01:14:27.549Z,99.82
2018-12-31T01:15:33.420Z,99.53
2018-12-31T01:16:39.356Z,99.23
2018-12-31T01:17:45.305Z,99.09
2018-12-31T01:18:51.312Z,99.75
2018-12-31T01:19:57.236Z,100.00
2018-12-31T01:21:03.103Z,99.63
2018-12-31T01:22:08.982Z,98.75
2018-12-31T01:23:14.905Z,98.70
2018-12-31T01:24:20.830Z,98.22
2018-12-31T01:25:26.708Z,97.53
2018-12-31T01:26:32.648Z,97.83
2018-12-31T01:27:38.569Z,97.83
2018-12-31T01:28:44.475Z,98.27
2018-12-31T01:29:50.399Z,98.46
2018-12-31T01:30:56.356Z,98.02
2018-12-31T01:32:02.277Z,97.76
2018-12-31T01:33:08.211Z,97.55
2018-12-31T01:34:14.083Z,96.65
2018-12-31T01:35:19.963Z,95.89
2018-12-31T01:36:25.833Z,97.09
2018-12-31T01:37:31.711Z,97.85
2018-12-31T01:38:37.647Z,97.84
2018-12-31T01:39:43.549Z,98.28
2018-12-31T01:40:49.426Z,97.46
2018-12-31T01:41:54.977Z,96.79
2018-12-31T01:43:00.919Z,97.26
2018-12-31T01:44:07.029Z,98.21
2018-12-31T01:45:14.269Z,98.56
2018-12-31T01:46:19.807Z,98.86
2018-12-31T01:47:25.920Z,98.98
2018-12-31T01:48:33.718Z,98.58
2018-12-31T01:49:41.841Z,96.98
2018-12-31T01:50:48.736Z,96.56
2018-12-31T01:51:55.553Z,96.30
2018-12-31T01:53:01.472Z,96.19
2018-12-31T01:54:09.954Z,95.79
2018-12-31T01:55:16.059Z,95.48
2018-12-31T01:56:21.962Z,95.80
2018-12-31T01:57:27.912Z,96.26
2018-12-31T01:58:33.817Z,97.18
2018-12-31T01:59:39.715Z,97.35
2018-12-31T02:00:45.585Z,98.36
2018-12-31T02:01:50.453Z,98.14
2018-12-31T02:02:55.369Z,98.94
2018-12-31T02:04:01.453Z,99.75
2018-12-31T02:05:07.392Z,100.00
2018-12-31T02:06:13.276Z,100.00
2018-12-31T02:07:19.193Z,100.00
2018-12-31T02:08:25.132Z,100.00
2018-12-31T02:09:31.070Z,100.00
2018-12-31T02:10:36.626Z,100.00
2018-12-31T02:11:42.545Z,100.00
2018-12-31T02:12:48.494Z,100.00
2018-12-31T02:13:54.440Z,100.00
2018-12-31T02:15:00.329Z,100.00
2018-12-31T02:16:05.933Z,100.00
2018-12-31T02:17:11.908Z,100.00
2018-12-31T02:18:17.812Z,100.00
2018-12-31T02:19:23.812Z,100.00
2018-12-31T02:20:29.403Z,100.00
2018-12-31T02:21:35.312Z,100.00
2018-12-31T02:22:41.219Z,100.00
2018-12-31T02:23:47.201Z,100.00
2018-12-31T02:24:53.102Z,99.63
2018-12-31T02:25:59.031Z,100.00
2018-12-31T02:27:04.604Z,99.45
2018-12-31T02:28:10.610Z,98.55
2018-12-31T02:29:16.498Z,99.23
2018-12-31T02:30:22.383Z,99.42
2018-12-31T02:31:28.297Z,99.80
2018-12-31T02:32:34.190Z,100.00
2018-12-31T02:33:40.143Z,100.00
2018-12-31T02:34:46.076Z,100.00
2018-12-31T02:35:52.133Z,100.00
2018-12-31T02:36:58.033Z,100.00
2018-12-31T02:38:03.933Z,100.00
2018-12-31T02:39:09.854Z,100.00
2018-12-31T02:40:15.817Z,100.00
2018-12-31T02:41:21.712Z,100.00
2018-12-31T02:42:27.637Z,100.00
2018-12-31T02:43:33.614Z,100.00
2018-12-31T02:44:39.549Z,100.00
2018-12-31T02:45:45.449Z,100.00
2018-12-31T02:46:51.324Z,100.00
2018-12-31T02:47:57.252Z,100.00
2018-12-31T02:49:03.207Z,100.00
2018-12-31T02:50:09.133Z,100.00
2018-12-31T02:51:15.014Z,100.00
2018-12-31T02:52:20.921Z,100.00
2018-12-31T02:53:26.845Z,100.00
2018-12-31T02:54:32.748Z,100.00
2018-12-31T02:55:38.670Z,100.00
2018-12-31T02:56:44.605Z,100.00
2018-12-31T02:57:50.513Z,100.00
2018-12-31T02:58:56.423Z,100.00
2018-12-31T03:00:02.314Z,100.00
2018-12-31T03:01:09.146Z,100.00
2018-12-31T03:02:15.034Z,100.00
2018-12-31T03:03:20.941Z,100.00
2018-12-31T03:04:26.871Z,100.00
2018-12-31T03:05:32.792Z,100.00
2018-12-31T03:06:38.721Z,100.00
2018-12-31T03:07:44.647Z,100.00
2018-12-31T03:08:50.581Z,100.00
2018-12-31T03:09:56.512Z,100.00
2018-12-31T03:11:02.489Z,100.00
2018-12-31T03:12:08.047Z,100.00
2018-12-31T03:13:13.967Z,100.00
2018-12-31T03:14:19.891Z,100.00
2018-12-31T03:15:25.812Z,100.00
2018-12-31T03:16:31.838Z,100.00
2018-12-31T03:17:37.789Z,100.00
2018-12-31T03:18:43.698Z,100.00
2018-12-31T03:19:49.661Z,100.00
2018-12-31T03:20:55.576Z,100.00
2018-12-31T03:22:01.466Z,100.00
2018-12-31T03:23:07.366Z,100.00
2018-12-31T03:24:13.312Z,100.00
2018-12-31T03:25:19.221Z,100.00
2018-12-31T03:26:25.177Z,100.00
2018-12-31T03:27:31.107Z,100.00
2018-12-31T03:28:36.998Z,100.00
2018-12-31T03:29:42.960Z,100.00
2018-12-31T03:30:48.887Z,100.00
2018-12-31T03:31:54.834Z,100.00
2018-12-31T03:33:00.737Z,100.00
2018-12-31T03:34:06.686Z,100.00
2018-12-31T03:35:12.614Z,100.00
2018-12-31T03:36:18.546Z,100.00
2018-12-31T03:37:24.429Z,100.00
2018-12-31T03:38:30.335Z,100.00
2018-12-31T03:39:36.266Z,100.00
2018-12-31T03:40:42.140Z,100.00
2018-12-31T03:41:48.093Z,100.00
2018-12-31T03:42:53.984Z,100.00
2018-12-31T03:43:59.869Z,100.00
2018-12-31T03:45:05.121Z,100.00
2018-12-31T03:46:11.061Z,100.00
2018-12-31T03:47:16.944Z,100.00
2018-12-31T03:48:22.814Z,100.00
2018-12-31T03:49:28.705Z,100.00
2018-12-31T03:50:34.607Z,100.00
2018-12-31T03:51:40.540Z,100.00
2018-12-31T03:52:46.452Z,100.00
2018-12-31T03:53:52.353Z,100.00
2018-12-31T03:54:58.280Z,100.00
2018-12-31T03:56:04.183Z,100.00
2018-12-31T03:57:10.180Z,100.00
2018-12-31T03:58:16.122Z,100.00
2018-12-31T03:59:22.058Z,100.00
2018-12-31T04:00:28.001Z,100.00
2018-12-31T04:01:33.901Z,100.00
2018-12-31T04:02:39.788Z,100.00
2018-12-31T04:03:45.669Z,100.00
2018-12-31T04:04:51.586Z,100.00
2018-12-31T04:05:57.502Z,100.00
2018-12-31T04:07:03.446Z,100.00
2018-12-31T04:08:09.397Z,100.00
2018-12-31T04:09:15.353Z,100.00
2018-12-31T04:10:20.981Z,100.00
2018-12-31T04:11:26.909Z,100.00
2018-12-31T04:12:32.873Z,100.00
2018-12-31T04:13:38.765Z,100.00
2018-12-31T04:14:44.710Z,100.00
2018-12-31T04:15:50.606Z,100.00
2018-12-31T04:16:56.573Z,100.00
2018-12-31T04:18:02.498Z,100.00
2018-12-31T04:19:08.534Z,100.00
2018-12-31T04:20:14.413Z,100.00
2018-12-31T04:21:20.337Z,100.00
2018-12-31T04:22:26.282Z,100.00
2018-12-31T04:23:32.221Z,100.00
2018-12-31T04:24:38.184Z,100.00
2018-12-31T04:25:44.185Z,100.00
2018-12-31T04:26:50.102Z,100.00
2018-12-31T04:27:56.038Z,100.00
2018-12-31T04:29:02.078Z,100.00
2018-12-31T04:30:07.717Z,100.00
2018-12-31T04:31:13.628Z,100.00
2018-12-31T04:32:19.524Z,100.00
2018-12-31T04:33:25.474Z,100.00
2018-12-31T04:34:31.405Z,100.00
2018-12-31T04:35:37.336Z,100.00
2018-12-31T04:36:43.233Z,100.00
2018-12-31T04:37:49.188Z,100.00
2018-12-31T04:38:55.094Z,100.00
2018-12-31T04:40:01.039Z,100.00
2018-12-31T04:41:07.024Z,100.00
2018-12-31T04:42:12.949Z,100.00
2018-12-31T04:43:18.859Z,100.00
2018-12-31T04:44:24.760Z,100.00
2018-12-31T04:45:30.692Z,100.00
2018-12-31T04:46:36.567Z,100.00
2018-12-31T04:47:42.490Z,100.00
2018-12-31T04:48:48.362Z,100.00
2018-12-31T04:49:54.268Z,100.00
2018-12-31T04:51:00.181Z,100.00
2018-12-31T04:52:05.766Z,100.00
2018-12-31T04:53:11.680Z,100.00
2018-12-31T04:54:17.624Z,100.00
2018-12-31T04:55:23.534Z,100.00
2018-12-31T04:56:29.439Z,100.00
2018-12-31T04:57:35.308Z,100.00
2018-12-31T04:58:41.226Z,100.00
2018-12-31T04:59:47.143Z,100.00
2018-12-31T05:00:53.144Z,100.00
2018-12-31T05:01:59.075Z,100.00
2018-12-31T05:03:04.970Z,100.00
2018-12-31T05:04:10.854Z,100.00
2018-12-31T05:05:16.760Z,100.00
2018-12-31T05:06:22.655Z,100.00
2018-12-31T05:07:28.557Z,100.00
2018-12-31T05:08:34.463Z,100.00
2018-12-31T05:09:40.390Z,100.00
2018-12-31T05:10:46.355Z,100.00
2018-12-31T05:11:52.269Z,100.00
2018-12-31T05:12:58.207Z,100.00
2018-12-31T05:14:04.147Z,100.00
2018-12-31T05:15:10.081Z,100.00
2018-12-31T05:16:15.965Z,100.00
2018-12-31T05:17:21.892Z,100.00
2018-12-31T05:18:27.804Z,100.00
2018-12-31T05:19:33.700Z,100.00
2018-12-31T05:20:39.634Z,100.00
2018-12-31T05:21:45.541Z,100.00
2018-12-31T05:22:51.501Z,100.00
2018-12-31T05:23:57.456Z,100.00
2018-12-31T05:25:03.027Z,100.00
2018-12-31T05:26:09.077Z,100.00
2018-12-31T05:27:14.955Z,100.00
2018-12-31T05:28:20.904Z,100.00
2018-12-31T05:29:26.787Z,100.00
2018-12-31T05:30:32.697Z,100.00
2018-12-31T05:31:38.577Z,100.00
2018-12-31T05:32:44.512Z,100.00
2018-12-31T05:33:50.445Z,100.00
2018-12-31T05:34:56.656Z,100.00
2018-12-31T05:36:03.230Z,100.00
2018-12-31T05:37:11.222Z,100.00
2018-12-31T05:38:17.130Z,100.00
2018-12-31T05:39:23.001Z,100.00
2018-12-31T05:40:30.121Z,100.00
2018-12-31T05:41:36.170Z,100.00
2018-12-31T05:42:42.062Z,100.00
2018-12-31T05:43:48.001Z,100.00
2018-12-31T05:44:53.952Z,100.00
2018-12-31T05:45:59.843Z,100.00
2018-12-31T05:47:05.756Z,100.00
2018-12-31T05:48:11.668Z,100.00
2018-12-31T05:49:17.592Z,100.00
2018-12-31T05:50:23.513Z,100.00
2018-12-31T05:51:29.459Z,100.00
2018-12-31T05:52:35.372Z,100.00
2018-12-31T05:53:41.269Z,100.00
2018-12-31T05:54:47.149Z,100.00
2018-12-31T05:55:53.206Z,100.00
2018-12-31T05:56:59.255Z,100.00
2018-12-31T05:58:04.283Z,100.00
2018-12-31T05:59:10.257Z,100.00
2018-12-31T06:00:15.131Z,100.00
2018-12-31T06:01:20.046Z,100.00
2018-12-31T06:02:24.978Z,100.00
2018-12-31T06:03:30.376Z,100.00
2018-12-31T06:04:36.566Z,100.00
2018-12-31T06:05:42.423Z,100.00
2018-12-31T06:06:48.291Z,100.00
2018-12-31T06:07:53.954Z,100.00
2018-12-31T06:09:00.273Z,100.00
2018-12-31T06:10:05.765Z,100.00
2018-12-31T06:11:11.639Z,100.00
2018-12-31T06:12:18.654Z,100.00
2018-12-31T06:13:25.056Z,100.00
2018-12-31T06:14:30.973Z,100.00
2018-12-31T06:15:36.860Z,100.00
2018-12-31T06:16:42.777Z,100.00
2018-12-31T06:17:49.051Z,100.00
2018-12-31T06:18:56.110Z,100.00
2018-12-31T06:20:03.142Z,100.00
2018-12-31T06:21:10.153Z,100.00
2018-12-31T06:22:18.074Z,100.00
2018-12-31T06:23:26.257Z,100.00
2018-12-31T06:24:33.397Z,100.00
2018-12-31T06:25:40.255Z,100.00
2018-12-31T06:26:46.510Z,100.00
2018-12-31T06:27:52.425Z,100.00
2018-12-31T06:28:59.141Z,100.00
2018-12-31T06:30:06.621Z,100.00
2018-12-31T06:31:13.607Z,100.00
2018-12-31T06:32:20.543Z,100.00
2018-12-31T06:33:27.473Z,100.00
2018-12-31T06:34:35.825Z,100.00
2018-12-31T06:35:44.822Z,100.00
2018-12-31T06:36:53.949Z,100.00
2018-12-31T06:38:03.335Z,100.00
2018-12-31T06:39:10.509Z,100.00
2018-12-31T06:40:18.082Z,100.00
2018-12-31T06:41:23.727Z,100.00
2018-12-31T06:42:30.456Z,100.00
2018-12-31T06:43:38.399Z,100.00
2018-12-31T06:44:45.231Z,100.00
2018-12-31T06:45:53.071Z,100.00
2018-12-31T06:47:00.792Z,100.00
2018-12-31T06:48:08.610Z,100.00
2018-12-31T06:49:17.392Z,100.00
2018-12-31T06:50:25.209Z,100.00
2018-12-31T06:51:34.817Z,100.00
2018-12-31T06:52:42.969Z,100.00
2018-12-31T06:53:49.355Z,100.00
2018-12-31T06:54:56.348Z,100.00
2018-12-31T06:56:03.636Z,100.00
2018-12-31T06:57:10.670Z,100.00
2018-12-31T06:58:18.081Z,100.00
2018-12-31T06:59:25.218Z,100.00
2018-12-31T07:00:33.720Z,100.00
2018-12-31T07:01:41.668Z,100.00
2018-12-31T07:02:48.405Z,100.00
2018-12-31T07:03:55.276Z,100.00
2018-12-31T07:05:02.186Z,100.00
2018-12-31T07:06:09.809Z,100.00
2018-12-31T07:07:16.915Z,100.00
2018-12-31T07:08:23.337Z,100.00
2018-12-31T07:09:30.286Z,100.00
2018-12-31T07:10:37.130Z,100.00
2018-12-31T07:11:44.058Z,100.00
2018-12-31T07:12:51.056Z,100.00
2018-12-31T07:13:58.012Z,100.00
2018-12-31T07:15:04.549Z,100.00
2018-12-31T07:16:11.404Z,100.00
2018-12-31T07:17:18.374Z,100.00
2018-12-31T07:18:25.116Z,100.00
2018-12-31T07:19:32.718Z,100.00
2018-12-31T07:20:39.455Z,100.00
2018-12-31T07:21:46.260Z,100.00
2018-12-31T07:22:53.349Z,100.00
2018-12-31T07:24:00.652Z,100.00
2018-12-31T07:25:07.656Z,100.00
2018-12-31T07:26:16.007Z,100.00
2018-12-31T07:27:22.992Z,100.00
2018-12-31T07:28:29.757Z,100.00
2018-12-31T07:29:38.138Z,100.00
2018-12-31T07:30:45.143Z,100.00
2018-12-31T07:31:52.544Z,100.00
2018-12-31T07:32:59.880Z,100.00
2018-12-31T07:34:06.413Z,100.00
2018-12-31T07:35:13.565Z,100.00
2018-12-31T07:36:20.485Z,100.00
2018-12-31T07:37:28.299Z,100.00
2018-12-31T07:38:36.008Z,100.00
2018-12-31T07:39:42.686Z,100.00
2018-12-31T07:40:49.979Z,100.00
2018-12-31T07:41:58.650Z,100.00
2018-12-31T07:43:04.755Z,100.00
2018-12-31T07:44:12.018Z,100.00
2018-12-31T07:45:18.835Z,100.00
2018-12-31T07:46:26.949Z,100.00
2018-12-31T07:47:35.951Z,100.00
2018-12-31T07:48:44.269Z,100.00
2018-12-31T07:49:51.248Z,100.00
2018-12-31T07:50:58.310Z,100.00
2018-12-31T07:52:06.335Z,100.00
2018-12-31T07:53:12.553Z,100.00
2018-12-31T07:54:18.555Z,100.00
2018-12-31T07:55:24.886Z,100.00
2018-12-31T07:56:31.476Z,100.00
2018-12-31T07:57:38.605Z,100.00
2018-12-31T07:58:44.500Z,100.00
2018-12-31T07:59:50.439Z,100.00
2018-12-31T08:00:56.369Z,100.00
2018-12-31T08:02:02.288Z,100.00
2018-12-31T08:03:08.250Z,100.00
2018-12-31T08:04:14.176Z,100.00
2018-12-31T08:05:20.079Z,100.00
2018-12-31T08:06:25.986Z,100.00
2018-12-31T08:07:31.935Z,100.00
2018-12-31T08:08:37.840Z,100.00
2018-12-31T08:09:43.723Z,100.00
2018-12-31T08:10:49.652Z,100.00
2018-12-31T08:11:55.545Z,100.00
2018-12-31T08:13:01.469Z,100.00
2018-12-31T08:14:07.382Z,100.00
2018-12-31T08:15:13.292Z,100.00
2018-12-31T08:16:19.210Z,100.00
2018-12-31T08:17:25.115Z,100.00
2018-12-31T08:18:30.675Z,100.00
2018-12-31T08:19:36.569Z,100.00
2018-12-31T08:20:42.559Z,100.00
2018-12-31T08:21:48.453Z,100.00
2018-12-31T08:22:54.432Z,100.00
2018-12-31T08:24:00.337Z,100.00
2018-12-31T08:25:05.526Z,100.00
2018-12-31T08:26:11.466Z,100.00
2018-12-31T08:27:17.392Z,100.00
2018-12-31T08:28:24.182Z,100.00
2018-12-31T08:29:30.152Z,100.00
2018-12-31T08:30:36.063Z,100.00
2018-12-31T08:31:41.990Z,100.00
2018-12-31T08:32:47.953Z,100.00
2018-12-31T08:33:53.893Z,100.00
2018-12-31T08:34:59.777Z,100.00
2018-12-31T08:36:05.348Z,100.00
2018-12-31T08:37:11.266Z,100.00
2018-12-31T08:38:17.194Z,100.00
2018-12-31T08:39:23.409Z,100.00
2018-12-31T08:40:29.876Z,100.00
2018-12-31T08:41:37.288Z,100.00
2018-12-31T08:42:43.753Z,100.00
2018-12-31T08:43:49.683Z,100.00
2018-12-31T08:44:55.564Z,100.00
2018-12-31T08:46:01.462Z,100.00
2018-12-31T08:47:07.364Z,100.00
2018-12-31T08:48:13.338Z,100.00
2018-12-31T08:49:19.212Z,100.00
2018-12-31T08:50:25.145Z,100.00
2018-12-31T08:51:31.082Z,100.00
2018-12-31T08:52:37.009Z,100.00
2018-12-31T08:53:42.928Z,100.00
2018-12-31T08:54:48.843Z,100.00
2018-12-31T08:55:54.750Z,100.00
2018-12-31T08:57:00.330Z,100.00
2018-12-31T08:58:06.266Z,100.00
2018-12-31T08:59:12.235Z,100.00
2018-12-31T09:00:18.116Z,100.00
2018-12-31T09:01:24.043Z,100.00
2018-12-31T09:02:29.945Z,100.00
2018-12-31T09:03:35.505Z,100.00
2018-12-31T09:04:41.430Z,100.00
2018-12-31T09:05:47.376Z,100.00
2018-12-31T09:06:53.016Z,100.00
2018-12-31T09:07:58.927Z,100.00
2018-12-31T09:09:03.899Z,100.00
2018-12-31T09:10:09.192Z,100.00
2018-12-31T09:11:15.074Z,100.00
2018-12-31T09:12:21.012Z,100.00
2018-12-31T09:13:26.953Z,100.00
2018-12-31T09:14:32.825Z,100.00
2018-12-31T09:15:38.696Z,100.00
2018-12-31T09:16:44.574Z,100.00
2018-12-31T09:17:50.484Z,100.00
2018-12-31T09:18:56.393Z,100.00
2018-12-31T09:20:02.286Z,100.00
2018-12-31T09:21:08.198Z,100.00
2018-12-31T09:22:14.074Z,100.00
2018-12-31T09:23:20.066Z,100.00
2018-12-31T09:24:26.000Z,100.00
2018-12-31T09:25:31.917Z,100.00
2018-12-31T09:26:37.811Z,100.00
2018-12-31T09:27:43.738Z,100.00
2018-12-31T09:28:49.631Z,100.00
2018-12-31T09:29:55.573Z,100.00
2018-12-31T09:31:01.528Z,100.00
2018-12-31T09:32:07.413Z,100.00
2018-12-31T09:33:13.354Z,100.00
2018-12-31T09:34:19.217Z,100.00
2018-12-31T09:35:25.080Z,100.00
2018-12-31T09:36:30.973Z,100.00
2018-12-31T09:37:36.874Z,100.00
2018-12-31T09:38:42.822Z,100.00
2018-12-31T09:39:48.762Z,100.00
2018-12-31T09:40:54.649Z,100.00
2018-12-31T09:42:00.522Z,100.00
2018-12-31T09:43:06.469Z,100.00
2018-12-31T09:44:12.349Z,100.00
2018-12-31T09:45:17.876Z,100.00
2018-12-31T09:46:23.821Z,100.00
2018-12-31T09:47:29.744Z,100.00
2018-12-31T09:48:35.649Z,100.00
2018-12-31T09:49:41.549Z,100.00
2018-12-31T09:50:48.149Z,100.00
2018-12-31T09:51:54.158Z,100.00
2018-12-31T09:53:00.058Z,100.00
2018-12-31T09:54:05.976Z,100.00
2018-12-31T09:55:11.881Z,100.00
2018-12-31T09:56:17.818Z,100.00
2018-12-31T09:57:23.694Z,100.00
2018-12-31T09:58:29.621Z,100.00
2018-12-31T09:59:35.591Z,100.00
2018-12-31T10:00:41.534Z,100.00
2018-12-31T10:01:47.433Z,100.00
2018-12-31T10:02:53.384Z,100.00
2018-12-31T10:03:59.306Z,100.00
2018-12-31T10:05:04.522Z,100.00
2018-12-31T10:06:11.173Z,100.00
2018-12-31T10:07:17.663Z,100.00
2018-12-31T10:08:23.596Z,100.00
2018-12-31T10:09:30.011Z,100.00
2018-12-31T10:10:37.017Z,100.00
2018-12-31T10:11:43.645Z,100.00
2018-12-31T10:12:50.325Z,100.00
2018-12-31T10:13:57.164Z,100.00
2018-12-31T10:15:04.079Z,100.00
2018-12-31T10:16:10.283Z,100.00
2018-12-31T10:17:17.042Z,100.00
2018-12-31T10:18:23.432Z,100.00
2018-12-31T10:19:29.625Z,100.00
2018-12-31T10:20:36.177Z,100.00
2018-12-31T10:21:42.443Z,100.00
2018-12-31T10:22:48.962Z,100.00
2018-12-31T10:23:55.260Z,100.00
2018-12-31T10:25:01.524Z,100.00
2018-12-31T10:26:08.114Z,100.00
2018-12-31T10:27:15.537Z,100.00
2018-12-31T10:28:21.961Z,100.00
2018-12-31T10:29:35.798Z,100.00
2018-12-31T10:30:34.478Z,100.00
2018-12-31T10:31:41.991Z,100.00
2018-12-31T10:32:48.547Z,100.00
2018-12-31T10:33:55.738Z,100.00
2018-12-31T10:35:02.263Z,100.00
2018-12-31T10:36:09.429Z,100.00
2018-12-31T10:37:15.839Z,100.00
2018-12-31T10:38:22.080Z,100.00
2018-12-31T10:39:29.011Z,100.00
2018-12-31T10:40:35.352Z,100.00
2018-12-31T10:41:41.873Z,100.00
2018-12-31T10:42:48.265Z,100.00
2018-12-31T10:43:54.650Z,100.00
2018-12-31T10:45:01.003Z,100.00
2018-12-31T10:46:07.327Z,100.00
2018-12-31T10:47:13.710Z,100.00
2018-12-31T10:48:19.760Z,100.00
2018-12-31T10:49:26.353Z,100.00
2018-12-31T10:50:32.769Z,100.00
2018-12-31T10:51:40.104Z,100.00
2018-12-31T10:52:47.537Z,100.00
2018-12-31T10:53:55.257Z,100.00
2018-12-31T10:55:03.589Z,100.00
2018-12-31T10:56:10.401Z,100.00
2018-12-31T10:57:17.952Z,100.00
2018-12-31T10:58:23.453Z,100.00
2018-12-31T10:59:30.932Z,100.00
2018-12-31T11:00:37.484Z,100.00
2018-12-31T11:01:44.036Z,100.00
2018-12-31T11:02:50.001Z,100.00
2018-12-31T11:03:56.534Z,100.00
2018-12-31T11:05:04.267Z,100.00
2018-12-31T11:06:11.669Z,100.00
2018-12-31T11:07:18.515Z,100.00
2018-12-31T11:08:26.071Z,100.00
2018-12-31T11:09:33.079Z,100.00
2018-12-31T11:10:40.251Z,100.00
2018-12-31T11:11:46.654Z,100.00
2018-12-31T11:12:52.568Z,100.00
2018-12-31T11:13:59.138Z,100.00
2018-12-31T11:15:05.851Z,100.00
2018-12-31T11:16:12.172Z,100.00
2018-12-31T11:17:19.458Z,100.00
2018-12-31T11:18:25.947Z,100.00
2018-12-31T11:19:33.519Z,100.00
2018-12-31T11:20:38.975Z,100.00
2018-12-31T11:23:35.063Z,100.00
2018-12-31T11:24:54.601Z,100.00
2018-12-31T11:27:57.367Z,100.00
2018-12-31T11:29:24.711Z,100.00
2018-12-31T11:30:31.349Z,100.00
2018-12-31T11:31:37.227Z,100.00
2018-12-31T11:32:43.165Z,100.00
2018-12-31T11:33:49.106Z,100.00
2018-12-31T11:34:55.047Z,100.00
2018-12-31T11:36:00.931Z,100.00
2018-12-31T11:37:07.348Z,100.00
2018-12-31T11:38:13.255Z,100.00
2018-12-31T11:39:19.692Z,100.00
2018-12-31T11:40:25.675Z,100.00
2018-12-31T11:41:31.599Z,100.00
2018-12-31T11:42:37.516Z,100.00
2018-12-31T11:43:43.444Z,100.00
2018-12-31T11:44:49.376Z,100.00
2018-12-31T11:45:55.229Z,100.00
2018-12-31T11:47:01.123Z,100.00
2018-12-31T11:48:08.481Z,100.00
2018-12-31T11:49:16.223Z,100.00
2018-12-31T11:50:23.441Z,100.00
2018-12-31T11:51:29.949Z,100.00
2018-12-31T11:52:35.872Z,100.00
2018-12-31T11:53:41.750Z,100.00
2018-12-31T11:54:48.293Z,100.00
2018-12-31T11:55:55.054Z,100.00
2018-12-31T11:57:05.943Z,100.00
2018-12-31T11:58:15.764Z,100.00
2018-12-31T11:59:22.840Z,100.00
2018-12-31T12:00:30.544Z,100.00
2018-12-31T12:01:38.848Z,100.00
2018-12-31T12:02:46.544Z,100.00
2018-12-31T12:03:53.916Z,100.00
2018-12-31T12:05:00.448Z,100.00
2018-12-31T12:06:07.622Z,100.00
2018-12-31T12:07:14.338Z,100.00
2018-12-31T12:08:21.353Z,100.00
2018-12-31T12:09:29.871Z,100.00
2018-12-31T12:10:38.129Z,100.00
2018-12-31T12:11:44.424Z,100.00
2018-12-31T12:12:51.331Z,100.00
2018-12-31T12:13:59.775Z,100.00
2018-12-31T12:15:06.237Z,100.00
2018-12-31T12:16:13.191Z,100.00
2018-12-31T12:17:21.097Z,100.00
2018-12-31T12:18:27.737Z,100.00
2018-12-31T12:19:35.678Z,100.00
2018-12-31T12:20:43.142Z,100.00
2018-12-31T12:21:49.977Z,100.00
2018-12-31T12:22:56.692Z,100.00
2018-12-31T12:24:03.245Z,100.00
2018-12-31T12:25:10.423Z,100.00
2018-12-31T12:26:17.217Z,100.00
2018-12-31T12:27:23.386Z,100.00
2018-12-31T12:28:29.527Z,100.00
2018-12-31T12:29:35.528Z,100.00
2018-12-31T12:30:41.499Z,100.00
2018-12-31T12:31:47.147Z,100.00
2018-12-31T12:32:54.136Z,100.00
2018-12-31T12:33:59.874Z,100.00
2018-12-31T12:35:05.166Z,100.00
2018-12-31T12:36:11.072Z,100.00
2018-12-31T12:37:17.000Z,100.00
2018-12-31T12:38:23.065Z,100.00
2018-12-31T12:39:29.100Z,100.00
2018-12-31T12:40:35.092Z,100.00
2018-12-31T12:41:40.994Z,100.00
2018-12-31T12:42:46.897Z,100.00
2018-12-31T12:43:52.954Z,100.00
2018-12-31T12:44:58.919Z,100.00
2018-12-31T12:46:04.912Z,100.00
2018-12-31T12:47:10.914Z,100.00
2018-12-31T12:48:16.932Z,100.00
2018-12-31T12:49:22.827Z,100.00
2018-12-31T12:50:28.807Z,100.00
2018-12-31T12:51:34.830Z,100.00
2018-12-31T12:52:40.753Z,100.00
2018-12-31T12:53:46.666Z,100.00
2018-12-31T12:54:52.541Z,100.00
2018-12-31T12:55:58.486Z,100.00
2018-12-31T12:57:04.373Z,100.00
2018-12-31T12:58:10.308Z,100.00
2018-12-31T12:59:16.213Z,100.00
2018-12-31T13:00:22.109Z,100.00
2018-12-31T13:01:28.816Z,100.00
2018-12-31T13:02:34.775Z,100.00
2018-12-31T13:03:40.740Z,100.00
2018-12-31T13:04:46.661Z,100.00
2018-12-31T13:05:53.229Z,100.00
2018-12-31T13:06:59.150Z,100.00
2018-12-31T13:08:06.253Z,100.00
2018-12-31T13:09:12.620Z,100.00
2018-12-31T13:10:18.529Z,100.00
2018-12-31T13:11:24.458Z,100.00
2018-12-31T13:12:30.566Z,100.00
2018-12-31T13:13:36.464Z,100.00
2018-12-31T13:14:42.394Z,100.00
2018-12-31T13:15:48.978Z,100.00
2018-12-31T13:16:54.866Z,100.00
2018-12-31T13:18:00.790Z,100.00
2018-12-31T13:19:06.731Z,100.00
2018-12-31T13:20:12.613Z,100.00
2018-12-31T13:21:18.624Z,100.00
2018-12-31T13:22:24.756Z,100.00
2018-12-31T13:23:30.697Z,100.00
2018-12-31T13:24:36.675Z,100.00
2018-12-31T13:25:42.689Z,100.00
2018-12-31T13:26:48.632Z,100.00
2018-12-31T13:27:54.662Z,100.00
2018-12-31T13:29:00.811Z,100.00
2018-12-31T13:30:06.050Z,100.00
2018-12-31T13:31:12.108Z,100.00
2018-12-31T13:32:17.984Z,100.00
2018-12-31T13:33:23.988Z,100.00
2018-12-31T13:34:29.921Z,100.00
2018-12-31T13:35:35.903Z,100.00
2018-12-31T13:36:41.956Z,100.00
2018-12-31T13:37:47.936Z,100.00
2018-12-31T13:38:53.862Z,100.00
2018-12-31T13:39:59.795Z,100.00
2018-12-31T13:41:05.521Z,100.00
2018-12-31T13:42:11.485Z,100.00
2018-12-31T13:43:17.450Z,100.00
2018-12-31T13:44:23.411Z,100.00
2018-12-31T13:45:29.234Z,100.00
2018-12-31T13:46:35.239Z,100.00
2018-12-31T13:47:41.440Z,100.00
2018-12-31T13:48:47.471Z,100.00
2018-12-31T13:49:53.405Z,100.00
2018-12-31T13:51:00.112Z,100.00
2018-12-31T13:52:07.199Z,100.00
2018-12-31T13:53:13.184Z,100.00
2018-12-31T13:54:20.247Z,100.00